createdAt,value
2023-02-15T00:38:34.334Z,2.88
2023-02-15T00:43:47.630Z,2.93
2023-02-15T00:53:45.798Z,2.80
2023-02-15T01:18:14.222Z,2.57
2023-02-15T01:19:37.373Z,2.51
2023-02-15T01:21:00.158Z,2.52
2023-02-15T01:24:43.955Z,2.51
2023-02-15T01:28:10.058Z,2.50
2023-02-15T01:29:49.862Z,2.48
2023-02-15T01:31:13.544Z,2.57
2023-02-15T01:38:22.468Z,2.48
2023-02-15T01:43:22.472Z,2.41
2023-02-15T01:48:33.368Z,2.47
2023-02-15T01:55:38.433Z,2.42
2023-02-15T02:00:51.322Z,2.30
2023-02-15T02:03:31.350Z,2.41
2023-02-15T02:21:29.761Z,2.30
2023-02-15T02:23:56.570Z,2.18
2023-02-15T02:25:37.909Z,2.19
2023-02-15T02:27:25.208Z,2.21
2023-02-15T02:29:45.785Z,2.19
2023-02-15T02:34:29.886Z,2.16
2023-02-15T02:42:55.685Z,2.21
2023-02-15T02:44:46.839Z,2.14
2023-02-15T02:46:36.933Z,2.19
2023-02-15T02:49:26.916Z,2.08
2023-02-15T02:50:52.840Z,2.07
2023-02-15T02:58:17.569Z,2.01
2023-02-15T02:59:49.050Z,2.09
2023-02-15T03:01:18.031Z,2.02
2023-02-15T03:03:09.005Z,2.02
2023-02-15T03:04:40.953Z,1.99
2023-02-15T03:06:25.122Z,2.05
2023-02-15T03:07:53.519Z,2.05
2023-02-15T03:10:03.734Z,2.00
2023-02-15T03:12:13.615Z,1.99
2023-02-15T03:13:47.514Z,1.99
2023-02-15T03:15:57.188Z,2.10
2023-02-15T03:17:31.059Z,2.11
2023-02-15T03:19:04.047Z,2.05
2023-02-15T03:20:34.411Z,2.00
2023-02-15T03:22:10.589Z,1.98
2023-02-15T03:24:48.327Z,2.08
2023-02-15T03:36:18.493Z,1.93
2023-02-15T03:38:14.347Z,1.87
2023-02-15T03:40:38.466Z,1.88
2023-02-15T03:42:46.925Z,1.92
2023-02-15T03:44:52.063Z,1.95
2023-02-15T03:47:09.806Z,1.82
2023-02-15T03:49:11.851Z,1.88
2023-02-15T03:51:00.645Z,1.82
2023-02-15T03:52:27.470Z,1.82
2023-02-15T03:53:54.470Z,1.87
2023-02-15T03:55:20.364Z,1.89
2023-02-15T03:57:11.218Z,1.81
2023-02-15T03:58:57.846Z,1.87
2023-02-15T04:00:43.427Z,1.81
2023-02-15T04:02:25.869Z,1.83
2023-02-15T04:04:07.021Z,1.79
2023-02-15T04:05:40.311Z,1.80
2023-02-15T04:07:09.700Z,1.89
2023-02-15T04:08:51.899Z,1.85
2023-02-15T04:10:45.372Z,1.79
2023-02-15T04:12:24.309Z,1.77
2023-02-15T04:14:35.157Z,1.75
2023-02-15T04:16:23.230Z,1.71
2023-02-15T04:18:17.319Z,1.70
2023-02-15T04:20:15.230Z,1.77
2023-02-15T04:21:56.944Z,1.78
2023-02-15T04:23:42.232Z,1.64
2023-02-15T04:25:14.397Z,1.62
2023-02-15T04:26:38.856Z,1.64
2023-02-15T04:28:03.825Z,1.64
2023-02-15T04:29:27.096Z,1.62
2023-02-15T04:30:50.018Z,1.58
2023-02-15T04:32:16.121Z,1.59
2023-02-15T04:33:40.392Z,1.70
2023-02-15T04:35:01.988Z,1.69
2023-02-15T04:36:25.796Z,1.68
2023-02-15T04:37:52.044Z,1.63
2023-02-15T04:39:15.433Z,1.65
2023-02-15T04:40:39.165Z,1.65
2023-02-15T04:42:02.118Z,1.63
2023-02-15T04:43:26.084Z,1.66
2023-02-15T04:44:48.260Z,1.57
2023-02-15T04:46:21.403Z,1.69
2023-02-15T04:47:47.852Z,1.66
2023-02-15T04:49:18.335Z,1.63
2023-02-15T04:50:42.344Z,1.64
2023-02-15T04:52:08.054Z,1.59
2023-02-15T04:53:34.187Z,1.69
2023-02-15T04:58:24.415Z,1.61
2023-02-15T05:00:40.177Z,1.50
2023-02-15T05:02:05.824Z,1.56
2023-02-15T05:03:27.629Z,1.62
2023-02-15T05:04:50.560Z,1.49
2023-02-15T05:06:27.289Z,1.58
2023-02-15T05:08:14.202Z,1.49
2023-02-15T05:19:07.355Z,1.46
2023-02-15T05:21:08.302Z,1.40
2023-02-15T05:22:48.241Z,1.34
2023-02-15T05:25:01.150Z,1.23
2023-02-15T05:26:54.829Z,1.21
2023-02-15T05:28:54.100Z,1.26
2023-02-15T05:30:41.369Z,1.23
2023-02-15T05:32:24.744Z,1.28
2023-02-15T05:34:04.004Z,1.33
2023-02-15T05:37:46.387Z,1.26
2023-02-15T05:50:34.026Z,1.18
2023-02-15T05:52:14.670Z,1.26
2023-02-15T05:53:44.288Z,1.19
2023-02-15T05:55:28.281Z,1.14
2023-02-15T05:57:06.054Z,1.18
2023-02-15T05:58:32.985Z,1.23
2023-02-15T06:07:05.980Z,1.27
2023-02-15T06:22:14.453Z,1.15
2023-02-15T06:43:38.418Z,1.48
2023-02-15T06:49:00.819Z,1.57
2023-02-15T06:53:35.507Z,1.57
2023-02-15T07:01:07.075Z,1.82
2023-02-15T07:03:53.892Z,1.85
2023-02-15T07:14:46.497Z,2.05
2023-02-15T07:22:19.097Z,2.25
2023-02-15T07:50:53.412Z,3.06
2023-02-15T07:52:18.934Z,3.05
2023-02-15T07:53:41.635Z,3.10
2023-02-15T07:55:03.976Z,3.16
2023-02-15T07:56:42.273Z,3.12
2023-02-15T07:58:05.204Z,3.22
2023-02-15T07:59:28.453Z,3.27
2023-02-15T08:01:05.262Z,3.24
2023-02-15T08:02:38.281Z,3.32
2023-02-15T08:04:05.909Z,3.40
2023-02-15T08:05:31.630Z,3.40
2023-02-15T08:07:05.517Z,3.39
2023-02-15T08:08:57.648Z,3.51
2023-02-15T08:11:03.791Z,3.49
2023-02-15T08:12:28.903Z,3.51
2023-02-15T08:14:26.051Z,3.54
2023-02-15T08:16:37.454Z,3.71
2023-02-15T08:23:58.562Z,4.15
2023-02-15T08:28:51.864Z,4.56
2023-02-15T08:30:22.194Z,4.75
2023-02-15T08:31:44.997Z,4.92
2023-02-15T08:33:59.808Z,5.16
2023-02-15T08:36:40.808Z,5.39
2023-02-15T08:45:41.595Z,6.12
2023-02-15T09:15:49.113Z,7.91
2023-02-15T09:26:11.943Z,8.30
2023-02-15T09:30:12.816Z,8.46
2023-02-15T09:31:39.499Z,8.58
2023-02-15T09:33:05.270Z,8.66
2023-02-15T09:34:50.255Z,8.73
2023-02-15T09:36:37.580Z,8.84
2023-02-15T09:46:35.857Z,9.43
2023-02-15T09:48:41.903Z,9.56
2023-02-15T09:51:23.678Z,9.68
2023-02-15T09:57:02.029Z,9.89
2023-02-15T09:59:35.423Z,9.90
2023-02-15T10:01:20.241Z,9.86
2023-02-15T10:02:59.102Z,9.95
2023-02-15T10:04:54.818Z,9.88
2023-02-15T10:09:25.123Z,9.97
2023-02-15T10:11:42.826Z,9.95
2023-02-15T10:13:48.679Z,9.92
2023-02-15T10:18:07.538Z,9.98
2023-02-15T10:20:17.972Z,9.93
2023-02-15T10:22:16.322Z,9.92
2023-02-15T10:24:03.555Z,9.84
2023-02-15T10:25:42.371Z,9.84
2023-02-15T10:27:26.058Z,9.91
2023-02-15T10:31:47.793Z,9.83
2023-02-15T10:33:30.896Z,9.78
2023-02-15T10:35:06.563Z,9.75
2023-02-15T10:36:41.711Z,9.67
2023-02-15T10:38:30.448Z,9.55
2023-02-15T10:40:15.724Z,9.51
2023-02-15T10:42:07.616Z,9.48
2023-02-15T10:44:13.042Z,9.31
2023-02-15T10:45:46.643Z,9.34
2023-02-15T10:47:47.533Z,9.19
2023-02-15T10:49:35.902Z,9.15
2023-02-15T10:51:06.192Z,9.12
2023-02-15T10:52:52.634Z,9.00
2023-02-15T10:54:34.735Z,9.01
2023-02-15T10:56:09.065Z,8.93
2023-02-15T11:03:27.794Z,8.59
2023-02-15T11:05:04.761Z,8.50
2023-02-15T11:06:32.888Z,8.40
2023-02-15T11:08:02.472Z,8.41
2023-02-15T11:09:38.449Z,8.38
2023-02-15T11:11:14.343Z,8.36
2023-02-15T11:12:55.628Z,8.29
2023-02-15T11:14:26.599Z,8.28
2023-02-15T11:16:01.682Z,8.21
2023-02-15T11:17:37.730Z,8.18
2023-02-15T11:19:04.709Z,8.11
2023-02-15T11:20:33.690Z,8.14
2023-02-15T11:22:04.888Z,8.03
2023-02-15T11:23:37.193Z,8.07
2023-02-15T11:25:14.985Z,8.01
2023-02-15T11:26:49.723Z,7.91
2023-02-15T11:28:19.942Z,7.92
2023-02-15T11:29:50.070Z,7.93
2023-02-15T11:34:14.742Z,7.86
2023-02-15T11:35:49.658Z,7.80
2023-02-15T11:37:31.850Z,7.71
2023-02-15T11:39:16.768Z,7.68
2023-02-15T11:40:48.487Z,7.66
2023-02-15T11:42:23.255Z,7.62
2023-02-15T11:44:03.584Z,7.64
2023-02-15T11:46:00.755Z,7.62
2023-02-15T11:50:14.452Z,7.59
2023-02-15T11:51:39.194Z,7.56
2023-02-15T11:53:07.218Z,7.52
2023-02-15T11:54:34.481Z,7.51
2023-02-15T11:56:00.620Z,7.47
2023-02-15T11:57:32.481Z,7.54
2023-02-15T11:58:59.555Z,7.50
2023-02-15T12:00:37.140Z,7.46
2023-02-15T12:02:00.899Z,7.52
2023-02-15T12:03:36.680Z,7.51
2023-02-15T12:05:23.217Z,7.44
2023-02-15T12:06:51.418Z,7.47
2023-02-15T12:08:23.946Z,7.44
2023-02-15T12:10:42.302Z,7.39
2023-02-15T12:14:52.569Z,7.42
2023-02-15T12:16:31.975Z,7.45
2023-02-15T12:17:59.897Z,7.46
2023-02-15T12:19:49.542Z,7.34
2023-02-15T12:21:27.511Z,7.36
2023-02-15T12:23:00.004Z,7.46
2023-02-15T12:24:32.853Z,7.39
2023-02-15T12:31:31.948Z,7.36
2023-02-15T12:33:37.026Z,7.37
2023-02-15T12:35:11.602Z,7.36
2023-02-15T12:36:57.849Z,7.35
2023-02-15T12:38:39.916Z,7.39
2023-02-15T12:40:41.488Z,7.38
2023-02-15T12:43:00.149Z,7.35
2023-02-15T12:44:35.949Z,7.36
2023-02-15T12:46:37.990Z,7.40
2023-02-15T12:48:29.282Z,7.44
2023-02-15T12:50:40.080Z,7.45
2023-02-15T12:53:27.662Z,7.45
2023-02-15T12:58:38.902Z,7.38
2023-02-15T13:00:34.711Z,7.40
2023-02-15T13:02:08.298Z,7.38
2023-02-15T13:03:46.896Z,7.42
2023-02-15T13:05:24.752Z,7.45
2023-02-15T13:11:36.525Z,7.50
2023-02-15T13:12:59.433Z,7.47
2023-02-15T13:14:29.730Z,7.50
2023-02-15T13:15:54.727Z,7.48
2023-02-15T13:17:19.334Z,7.50
2023-02-15T13:18:45.493Z,7.55
2023-02-15T13:20:21.287Z,7.57
2023-02-15T13:21:47.503Z,7.60
2023-02-15T13:23:36.342Z,7.57
2023-02-15T13:25:09.613Z,7.60
2023-02-15T13:26:50.936Z,7.52
2023-02-15T13:28:36.621Z,7.53
2023-02-15T13:30:13.896Z,7.58
2023-02-15T13:31:44.004Z,7.65
2023-02-15T13:33:19.698Z,7.62
2023-02-15T13:34:57.997Z,7.67
2023-02-15T13:36:53.028Z,7.66
2023-02-15T13:41:13.349Z,7.56
2023-02-15T13:42:44.694Z,7.63
2023-02-15T13:44:40.957Z,7.56
2023-02-15T13:46:26.728Z,7.64
2023-02-15T13:48:01.531Z,7.65
2023-02-15T13:50:25.073Z,7.63
2023-02-15T13:53:11.590Z,7.57
2023-02-15T13:55:03.990Z,7.58
2023-02-15T13:56:36.198Z,7.69
2023-02-15T13:58:25.696Z,7.67
2023-02-15T14:02:52.866Z,7.60
2023-02-15T14:04:51.316Z,7.69
2023-02-15T14:06:40.305Z,7.71
2023-02-15T14:08:11.645Z,7.73
2023-02-15T14:09:48.165Z,7.75
2023-02-15T14:11:18.595Z,7.73
2023-02-15T14:13:10.101Z,7.77
2023-02-15T14:14:51.841Z,7.73
2023-02-15T14:16:25.850Z,7.78
2023-02-15T14:18:03.481Z,7.78
2023-02-15T14:19:31.594Z,7.80
2023-02-15T14:21:04.659Z,7.80
2023-02-15T14:22:37.802Z,7.82
2023-02-15T14:24:16.434Z,7.82
2023-02-15T14:25:43.873Z,7.83
2023-02-15T14:27:19.118Z,7.82
2023-02-15T14:28:48.187Z,7.84
2023-02-15T14:30:18.506Z,7.80
2023-02-15T14:31:48.023Z,7.86
2023-02-15T14:33:35.209Z,7.84
2023-02-15T14:35:02.105Z,7.85
2023-02-15T14:36:29.188Z,7.84
2023-02-15T14:41:11.673Z,7.72
2023-02-15T14:42:41.369Z,7.81
2023-02-15T14:44:12.135Z,7.80
2023-02-15T14:45:48.334Z,7.80
2023-02-15T14:47:33.202Z,7.69
2023-02-15T14:50:47.159Z,7.77
2023-02-15T14:52:39.880Z,7.73
2023-02-15T15:09:03.292Z,7.60
2023-02-15T15:10:55.161Z,7.55
2023-02-15T15:12:44.142Z,7.56
2023-02-15T15:14:11.611Z,7.48
2023-02-15T15:15:47.583Z,7.53
2023-02-15T15:17:16.813Z,7.53
2023-02-15T15:18:49.438Z,7.44
2023-02-15T15:23:57.169Z,7.48
2023-02-15T15:41:47.691Z,7.01
2023-02-15T15:44:12.531Z,7.05
2023-02-15T15:47:24.830Z,6.87
2023-02-15T16:51:16.967Z,5.59
2023-02-15T16:59:23.407Z,5.65
2023-02-15T17:06:42.369Z,5.66
2023-02-15T17:08:17.176Z,5.67
2023-02-15T17:09:52.551Z,5.69
2023-02-15T17:11:22.731Z,5.66
2023-02-15T17:13:02.599Z,5.65
2023-02-15T17:14:34.699Z,5.70
2023-02-15T17:16:34.439Z,5.71
2023-02-15T17:18:01.269Z,5.65
2023-02-15T17:19:27.344Z,5.74
2023-02-15T17:20:52.653Z,5.68
2023-02-15T17:22:35.246Z,5.74
2023-02-15T17:24:03.865Z,5.68
2023-02-15T17:25:43.732Z,5.73
2023-02-15T17:27:19.107Z,5.72
2023-02-15T17:28:51.748Z,5.76
2023-02-15T17:30:19.199Z,5.80
2023-02-15T17:31:53.395Z,5.79
2023-02-15T17:33:30.250Z,5.78
2023-02-15T17:35:18.628Z,5.79
2023-02-15T17:37:13.639Z,5.68
2023-02-15T17:40:01.059Z,5.66
2023-02-15T17:42:28.214Z,5.73
2023-02-15T17:44:03.238Z,5.61
2023-02-15T17:45:40.253Z,5.70
2023-02-15T17:47:09.482Z,5.70
2023-02-15T17:48:50.958Z,5.69
2023-02-15T17:50:33.005Z,5.65
2023-02-15T17:52:23.978Z,5.63
2023-02-15T17:54:58.198Z,5.53
2023-02-15T17:56:51.621Z,5.51
2023-02-15T17:58:56.416Z,5.60
2023-02-15T18:00:44.964Z,5.52
2023-02-15T18:02:34.152Z,5.46
2023-02-15T18:07:37.863Z,5.42
2023-02-15T18:09:20.547Z,5.40
2023-02-15T18:11:00.634Z,5.37
2023-02-15T18:12:31.578Z,5.42
2023-02-15T18:14:10.956Z,5.44
2023-02-15T18:16:24.660Z,5.41
2023-02-15T18:17:48.074Z,5.38
2023-02-15T18:19:31.024Z,5.32
2023-02-15T18:21:15.665Z,5.29
2023-02-15T18:22:41.392Z,5.34
2023-02-15T18:24:21.689Z,5.30
2023-02-15T18:26:32.793Z,5.30
2023-02-15T18:28:20.308Z,5.29
2023-02-15T18:33:00.474Z,5.13
2023-02-15T18:34:33.120Z,5.11
2023-02-15T18:36:02.832Z,5.17
2023-02-15T18:37:30.473Z,5.10
2023-02-15T18:39:07.776Z,5.09
2023-02-15T18:41:13.213Z,5.10
2023-02-15T18:45:56.381Z,4.98
2023-02-15T18:46:17.933Z,5.08
2023-02-15T18:49:52.795Z,4.94
2023-02-15T18:52:18.646Z,4.95
2023-02-15T19:00:37.725Z,4.84
2023-02-15T19:04:32.910Z,4.67
2023-02-15T19:05:58.558Z,4.75
2023-02-15T19:07:40.218Z,4.74
2023-02-15T19:09:21.832Z,4.74
2023-02-15T19:11:23.502Z,4.64
2023-02-15T19:13:20.233Z,4.65
2023-02-15T19:14:48.896Z,4.66
2023-02-15T19:16:27.452Z,4.67
2023-02-15T19:18:00.673Z,4.59
2023-02-15T19:19:31.346Z,4.59
2023-02-15T19:21:00.490Z,4.61
2023-02-15T19:22:29.885Z,4.57
2023-02-15T19:24:25.372Z,4.65
2023-02-15T19:25:56.626Z,4.62
2023-02-15T19:27:29.453Z,4.58
2023-02-15T19:31:50.320Z,4.52
2023-02-15T19:33:49.224Z,4.44
2023-02-15T19:35:28.892Z,4.42
2023-02-15T19:37:36.593Z,4.51
2023-02-15T19:41:18.028Z,4.34
2023-02-15T19:42:08.997Z,4.30
2023-02-15T19:43:44.734Z,4.29
2023-02-15T19:47:07.672Z,4.32
2023-02-15T19:48:35.926Z,4.24
2023-02-15T19:50:32.898Z,4.19
2023-02-15T19:52:20.512Z,4.27
2023-02-15T19:53:47.500Z,4.28
2023-02-15T19:56:13.554Z,4.22
2023-02-15T19:57:41.448Z,4.18
2023-02-15T20:08:37.414Z,3.99
2023-02-15T20:10:06.575Z,4.06
2023-02-15T20:11:41.236Z,3.97
2023-02-15T20:13:27.120Z,3.99
2023-02-15T20:17:18.284Z,3.97
2023-02-15T20:18:49.763Z,3.93
2023-02-15T20:20:17.884Z,3.98
2023-02-15T20:21:55.156Z,3.98
2023-02-15T20:24:09.620Z,4.02
2023-02-15T20:25:54.848Z,3.96
2023-02-15T20:32:34.160Z,3.95
2023-02-15T20:34:16.362Z,3.87
2023-02-15T20:36:26.355Z,3.87
2023-02-15T20:38:29.880Z,3.85
2023-02-15T20:40:12.296Z,3.88
2023-02-15T20:41:38.414Z,3.83
2023-02-15T20:43:28.005Z,3.77
2023-02-15T20:45:59.442Z,3.80
2023-02-15T20:48:05.444Z,3.74
2023-02-15T20:54:24.373Z,3.78
2023-02-15T20:57:21.890Z,3.75
2023-02-15T20:59:41.486Z,3.68
2023-02-15T21:03:31.198Z,3.61
2023-02-15T22:00:42.418Z,3.36
2023-02-15T22:03:08.792Z,3.37
2023-02-15T22:05:17.121Z,3.24
2023-02-15T22:16:08.039Z,3.25
2023-02-15T22:17:44.824Z,3.17
2023-02-15T22:20:12.663Z,3.08
2023-02-15T22:21:47.766Z,3.16
2023-02-15T22:24:50.429Z,3.17
2023-02-15T22:26:08.919Z,3.05
2023-02-15T22:27:47.854Z,3.05
2023-02-15T22:29:23.706Z,3.04
